Time;durP1;ratioP1;P1;durP2;ratioP2;P2;SDS_P1;SDS_P2;PMS_P1;PMS_P2;Temp;Humidity;BMP_temperature;BMP_pressure;BME280_temperature;BME280_humidity;BME280_pressure;Samples;Min_cycle;Max_cycle;Signal;HPM_P1;HPM_P2
2023/06/14 20:06:07;;;;;;;2.63;2.42;;;17.60;66.00;;;;;;5051195;28;20606;-74
2023/06/14 20:08:32;;;;;;;6.60;2.60;;;17.30;67.10;;;;;;5049570;28;20182;-74
2023/06/14 20:10:58;;;;;;;2.83;2.33;;;17.20;67.60;;;;;;5049485;28;20179;-74
2023/06/14 20:13:24;;;;;;;2.70;2.50;;;17.20;68.20;;;;;;5050967;28;20179;-74
2023/06/14 20:15:49;;;;;;;3.30;2.40;;;17.10;68.60;;;;;;5049841;28;20214;-74
2023/06/14 20:18:15;;;;;;;2.70;2.47;;;17.10;69.00;;;;;;5049693;28;20170;-74
2023/06/14 20:20:41;;;;;;;3.22;2.63;;;17.10;69.40;;;;;;5050196;28;20197;-74
2023/06/14 20:23:07;;;;;;;3.47;2.58;;;17.10;69.90;;;;;;5049604;28;20212;-74
2023/06/14 20:25:33;;;;;;;6.05;2.55;;;17.00;70.20;;;;;;5049377;28;20182;-74
2023/06/14 20:27:58;;;;;;;3.67;2.50;;;17.00;70.60;;;;;;5049251;28;20269;-74
2023/06/14 20:30:24;;;;;;;2.67;2.47;;;17.00;71.00;;;;;;5049239;28;20273;-74
2023/06/14 20:32:49;;;;;;;2.75;2.55;;;17.00;71.50;;;;;;5049449;28;20265;-74
2023/06/14 20:35:15;;;;;;;2.80;2.60;;;16.90;72.10;;;;;;5050493;28;20202;-74
2023/06/14 20:37:40;;;;;;;2.78;2.60;;;16.80;72.60;;;;;;5049147;28;20202;-74
2023/06/14 20:40:18;;;;;;;4.95;2.60;;;16.70;73.00;;;;;;5048909;28;20181;-74
2023/06/14 20:42:44;;;;;;;2.90;2.70;;;16.70;73.40;;;;;;5049784;28;20607;-74
2023/06/14 20:45:10;;;;;;;2.85;2.45;;;16.60;73.60;;;;;;5050414;28;20170;-74
2023/06/14 20:47:37;;;;;;;3.88;2.70;;;16.60;74.00;;;;;;5048722;28;20289;-74
2023/06/14 20:50:04;;;;;;;3.25;2.75;;;16.60;74.30;;;;;;5048845;28;20182;-74
2023/06/14 20:52:30;;;;;;;3.25;2.40;;;16.50;74.60;;;;;;5048777;28;20194;-74
2023/06/14 20:54:57;;;;;;;3.33;2.45;;;16.50;74.70;;;;;;5048648;28;20206;-74
2023/06/14 20:57:22;;;;;;;2.80;2.47;;;16.40;74.90;;;;;;5049382;28;20195;-74
2023/06/14 20:59:49;;;;;;;2.85;2.63;;;16.40;75.30;;;;;;5048670;28;20181;-74
2023/06/14 21:02:17;;;;;;;2.67;2.47;;;16.30;75.80;;;;;;5048549;28;20174;-74
2023/06/14 21:04:46;;;;;;;4.40;2.80;;;16.30;76.00;;;;;;5048692;28;20201;-74
2023/06/14 21:07:12;;;;;;;3.05;2.60;;;16.20;76.30;;;;;;5048469;28;20214;-73
2023/06/14 21:09:39;;;;;;;2.78;2.55;;;16.20;76.50;;;;;;5048767;28;20178;-74
2023/06/14 21:12:06;;;;;;;5.40;2.53;;;16.20;77.00;;;;;;5048689;28;20186;-74
2023/06/14 21:14:31;;;;;;;3.65;2.80;;;16.10;77.60;;;;;;5048607;28;20198;-74
2023/06/14 21:16:57;;;;;;;4.35;2.80;;;16.10;78.00;;;;;;5038291;28;20237;-74
2023/06/14 21:19:22;;;;;;;4.22;2.88;;;16.00;78.60;;;;;;5036211;28;20170;-74
2023/06/14 21:21:48;;;;;;;4.03;2.90;;;16.00;79.10;;;;;;5035289;28;20270;-73
2023/06/14 21:24:13;;;;;;;2.65;2.55;;;15.90;79.10;;;;;;5034851;28;20197;-73
2023/06/14 21:26:39;;;;;;;5.07;2.75;;;15.90;79.40;;;;;;5035090;28;20237;-74
2023/06/14 21:29:05;;;;;;;4.35;2.83;;;15.80;79.40;;;;;;5035083;28;20186;-74
2023/06/14 21:31:30;;;;;;;5.03;2.80;;;15.80;79.50;;;;;;5035079;28;20179;-73
2023/06/14 21:33:57;;;;;;;3.25;3.03;;;15.80;79.50;;;;;;5034635;28;20182;-73
2023/06/14 21:36:22;;;;;;;2.95;2.75;;;15.70;80.00;;;;;;5034514;28;20564;-74
2023/06/14 21:38:48;;;;;;;3.78;2.60;;;15.60;80.60;;;;;;5035959;28;20178;-74
2023/06/14 21:41:14;;;;;;;4.72;2.55;;;15.50;80.90;;;;;;5034368;28;20176;-74
2023/06/14 21:43:39;;;;;;;3.15;2.67;;;15.50;81.10;;;;;;5036460;28;20318;-74
2023/06/14 21:46:05;;;;;;;3.58;2.60;;;15.40;81.80;;;;;;5035609;28;20190;-73
2023/06/14 21:48:31;;;;;;;3.63;2.78;;;15.30;81.70;;;;;;5034858;28;20205;-73
2023/06/14 21:50:57;;;;;;;3.58;3.15;;;15.30;82.40;;;;;;5035646;28;20588;-73
2023/06/14 21:53:23;;;;;;;3.42;3.10;;;15.30;82.90;;;;;;5035501;28;20183;-73
2023/06/14 21:55:49;;;;;;;6.20;3.38;;;15.10;83.10;;;;;;5034141;28;20214;-74
2023/06/14 21:58:14;;;;;;;6.03;3.20;;;15.10;83.70;;;;;;5034303;28;20247;-74
2023/06/14 22:00:40;;;;;;;6.50;3.15;;;15.00;84.10;;;;;;5034526;28;20267;-74
2023/06/14 22:03:06;;;;;;;3.83;3.00;;;14.90;84.30;;;;;;5034249;28;20202;-74
2023/06/14 22:05:31;;;;;;;3.92;2.80;;;14.80;84.70;;;;;;5034411;28;20201;-74
2023/06/14 22:07:57;;;;;;;3.85;2.60;;;14.70;86.10;;;;;;5034108;28;20592;-73
2023/06/14 22:10:23;;;;;;;4.72;2.95;;;14.70;86.30;;;;;;5034024;28;20228;-73
2023/06/14 22:12:49;;;;;;;5.30;3.28;;;14.50;87.10;;;;;;5034357;28;20178;-73
2023/06/14 22:15:16;;;;;;;4.47;3.05;;;14.50;87.50;;;;;;5033898;28;20673;-73
2023/06/14 22:17:43;;;;;;;3.60;3.30;;;14.50;87.80;;;;;;5034718;28;20206;-73
2023/06/14 22:20:10;;;;;;;3.50;3.20;;;14.50;88.40;;;;;;5033892;28;20646;-73
2023/06/14 22:22:38;;;;;;;3.60;3.30;;;14.40;88.60;;;;;;5034119;28;20222;-73
2023/06/14 22:25:04;;;;;;;3.30;3.10;;;14.30;89.20;;;;;;5035783;28;20183;-73
2023/06/14 22:27:30;;;;;;;4.15;3.30;;;14.20;89.80;;;;;;5033296;28;20210;-73
2023/06/14 22:29:59;;;;;;;3.28;3.08;;;14.20;90.20;;;;;;5034134;28;20183;-73
2023/06/14 22:32:32;;;;;;;6.10;3.70;;;14.10;90.40;;;;;;5033872;28;20205;-73
2023/06/14 22:35:02;;;;;;;3.88;3.47;;;14.10;90.70;;;;;;5034822;28;20187;-74
2023/06/14 22:37:36;;;;;;;3.70;3.30;;;14.10;90.80;;;;;;5033820;28;20198;-73
2023/06/14 22:40:09;;;;;;;3.47;3.28;;;14.10;91.10;;;;;;5034942;28;20152;-73
2023/06/14 22:42:45;;;;;;;4.80;3.45;;;14.00;91.30;;;;;;5034433;28;20224;-73
2023/06/14 22:45:12;;;;;;;4.03;3.72;;;14.10;91.60;;;;;;5033354;28;20265;-73
2023/06/14 22:47:41;;;;;;;3.70;3.40;;;13.90;92.00;;;;;;5034452;28;20203;-73
2023/06/14 22:50:07;;;;;;;3.80;3.50;;;13.80;92.60;;;;;;5033594;28;20209;-73
2023/06/14 22:52:34;;;;;;;4.28;3.88;;;13.60;93.10;;;;;;5033238;28;20210;-73
2023/06/14 22:55:01;;;;;;;3.85;3.50;;;13.50;93.20;;;;;;5033897;28;20206;-73
2023/06/14 22:57:26;;;;;;;10.55;3.92;;;13.50;93.60;;;;;;5033045;28;20257;-73
2023/06/14 22:59:52;;;;;;;3.95;3.63;;;13.40;93.80;;;;;;5033364;28;20179;-73
2023/06/14 23:02:19;;;;;;;3.90;3.60;;;13.30;94.30;;;;;;5034522;28;20725;-73
2023/06/14 23:04:46;;;;;;;3.92;3.58;;;13.20;94.80;;;;;;5032981;28;20226;-73
2023/06/14 23:07:15;;;;;;;4.40;3.58;;;13.20;95.10;;;;;;5033227;28;20198;-73
2023/06/14 23:09:45;;;;;;;4.70;3.53;;;13.20;95.30;;;;;;5034930;28;20248;-73
2023/06/14 23:12:11;;;;;;;4.13;3.60;;;13.30;95.40;;;;;;5033717;28;20279;-73
2023/06/14 23:14:37;;;;;;;4.07;3.70;;;13.20;95.50;;;;;;5032811;28;20269;-73
2023/06/14 23:17:05;;;;;;;3.70;3.40;;;13.10;95.80;;;;;;5033100;28;20198;-73
2023/06/14 23:19:31;;;;;;;4.13;3.58;;;13.10;96.20;;;;;;5032782;28;20233;-73
2023/06/14 23:21:58;;;;;;;6.15;3.85;;;13.20;96.50;;;;;;5033554;28;20182;-73
2023/06/14 23:24:26;;;;;;;4.72;3.33;;;12.90;97.10;;;;;;5032619;28;20182;-73
2023/06/14 23:26:58;;;;;;;3.85;3.55;;;13.00;97.10;;;;;;5032644;28;20576;-73
2023/06/14 23:29:27;;;;;;;5.82;3.38;;;13.10;97.00;;;;;;5033843;28;20155;-73
2023/06/14 23:31:54;;;;;;;3.67;3.35;;;13.20;96.70;;;;;;5032855;28;20187;-73
2023/06/14 23:34:20;;;;;;;4.85;3.67;;;13.00;97.40;;;;;;5032814;28;20207;-73
2023/06/14 23:36:47;;;;;;;4.32;3.33;;;12.90;98.60;;;;;;5033241;28;20282;-73
2023/06/14 23:39:13;;;;;;;4.05;3.72;;;12.80;99.10;;;;;;5032258;28;20179;-73
2023/06/14 23:41:40;;;;;;;4.18;3.80;;;12.70;99.50;;;;;;5033963;28;20162;-73
2023/06/14 23:44:06;;;;;;;6.50;3.30;;;12.70;99.90;;;;;;5032671;28;20179;-73
2023/06/14 23:46:32;;;;;;;5.70;3.78;;;12.70;99.90;;;;;;5032912;28;20281;-73
2023/06/14 23:48:59;;;;;;;4.05;3.65;;;12.70;99.90;;;;;;5033443;28;20254;-73
2023/06/14 23:51:25;;;;;;;4.60;3.60;;;12.70;99.90;;;;;;5032583;28;20243;-73
2023/06/14 23:53:52;;;;;;;3.40;3.20;;;12.70;99.90;;;;;;5033346;28;20673;-73
2023/06/14 23:56:32;;;;;;;4.18;3.78;;;12.80;99.90;;;;;;5033403;28;20201;-73
2023/06/14 23:58:58;;;;;;;3.80;3.40;;;12.90;99.90;;;;;;5033021;28;20695;-73
